createdAt,value
2018-07-24T00:01:27.684Z,6.53
2018-07-24T00:03:55.771Z,7.37
2018-07-24T00:06:24.402Z,6.80
2018-07-24T00:08:52.722Z,6.60
2018-07-24T00:11:21.315Z,6.70
2018-07-24T00:13:49.698Z,6.00
2018-07-24T00:16:18.109Z,6.47
2018-07-24T00:18:46.433Z,6.90
2018-07-24T00:21:14.616Z,7.43
2018-07-24T00:23:42.780Z,6.87
2018-07-24T00:26:11.209Z,7.00
2018-07-24T00:28:39.754Z,6.63
2018-07-24T00:31:08.279Z,6.50
2018-07-24T00:33:36.593Z,6.33
2018-07-24T00:36:05.083Z,6.63
2018-07-24T00:38:33.461Z,6.90
2018-07-24T00:41:02.022Z,6.53
2018-07-24T00:43:30.217Z,6.83
2018-07-24T00:45:58.696Z,6.33
2018-07-24T00:48:27.077Z,7.20
2018-07-24T00:50:55.266Z,6.83
2018-07-24T00:53:23.545Z,6.73
2018-07-24T00:55:52.005Z,6.30
2018-07-24T00:58:20.392Z,6.73
2018-07-24T01:00:48.774Z,7.03
2018-07-24T01:03:17.238Z,7.13
2018-07-24T01:05:45.277Z,6.90
2018-07-24T01:08:13.620Z,7.47
2018-07-24T01:10:41.950Z,8.00
2018-07-24T01:13:10.246Z,8.10
2018-07-24T01:15:38.725Z,7.67
2018-07-24T01:18:07.197Z,7.97
2018-07-24T01:20:35.289Z,7.20
2018-07-24T01:23:03.757Z,8.13
2018-07-24T01:25:32.034Z,7.47
2018-07-24T01:28:00.110Z,7.57
2018-07-24T01:30:28.377Z,7.53
2018-07-24T01:32:56.662Z,8.27
2018-07-24T01:35:25.027Z,7.80
2018-07-24T01:37:53.309Z,7.87
2018-07-24T01:40:21.794Z,7.77
2018-07-24T01:42:50.061Z,7.97
2018-07-24T01:45:18.538Z,7.77
2018-07-24T01:47:46.717Z,7.20
2018-07-24T01:50:14.986Z,7.73
2018-07-24T01:52:43.466Z,7.80
2018-07-24T01:55:11.855Z,7.43
2018-07-24T01:57:40.122Z,7.13
2018-07-24T02:00:12.806Z,7.67
2018-07-24T02:02:41.169Z,7.73
2018-07-24T02:05:09.653Z,8.13
2018-07-24T02:07:37.922Z,7.93
2018-07-24T02:10:06.322Z,8.23
2018-07-24T02:12:34.682Z,7.83
2018-07-24T02:15:03.070Z,8.20
2018-07-24T02:17:31.340Z,8.17
2018-07-24T02:19:59.921Z,8.17
2018-07-24T02:22:28.305Z,8.60
2018-07-24T02:24:56.576Z,8.43
2018-07-24T02:27:24.857Z,7.53
2018-07-24T02:29:53.325Z,8.47
2018-07-24T02:32:21.709Z,8.40
2018-07-24T02:34:49.990Z,7.53
2018-07-24T02:37:18.071Z,9.07
2018-07-24T02:39:46.329Z,8.37
2018-07-24T02:42:14.606Z,8.67
2018-07-24T02:44:42.788Z,8.33
2018-07-24T02:47:11.070Z,8.60
2018-07-24T02:49:39.429Z,9.13
2018-07-24T02:52:07.619Z,8.97
2018-07-24T02:54:35.891Z,9.00
2018-07-24T02:57:04.369Z,9.27
2018-07-24T02:59:32.649Z,9.50
2018-07-24T03:02:00.818Z,9.47
2018-07-24T03:04:28.981Z,9.77
2018-07-24T03:06:57.269Z,9.30
2018-07-24T03:09:25.737Z,10.20
2018-07-24T03:11:54.014Z,11.33
2018-07-24T03:14:22.398Z,11.37
2018-07-24T03:16:50.782Z,11.07
2018-07-24T03:19:19.154Z,11.17
2018-07-24T03:21:47.436Z,12.17
2018-07-24T03:24:15.803Z,11.63
2018-07-24T03:26:44.187Z,12.70
2018-07-24T03:29:12.453Z,12.43
2018-07-24T03:31:40.742Z,12.87
2018-07-24T03:34:09.004Z,12.90
2018-07-24T03:36:37.286Z,12.23
2018-07-24T03:39:08.482Z,13.33
2018-07-24T03:41:36.797Z,12.60
2018-07-24T03:44:05.083Z,13.43
2018-07-24T03:46:33.458Z,12.37
2018-07-24T03:49:01.730Z,13.87
2018-07-24T03:51:30.002Z,14.00
2018-07-24T03:53:58.385Z,13.53
2018-07-24T03:56:26.670Z,12.93
2018-07-24T03:58:54.930Z,13.10
2018-07-24T04:01:22.911Z,13.13
2018-07-24T04:03:51.277Z,13.90
2018-07-24T04:06:19.556Z,12.97
2018-07-24T04:08:47.562Z,14.03
2018-07-24T04:11:15.918Z,12.80
2018-07-24T04:13:44.299Z,13.23
2018-07-24T04:16:12.767Z,12.87
2018-07-24T04:18:48.357Z,13.30
2018-07-24T04:21:17.746Z,12.47
2018-07-24T04:23:46.867Z,13.90
2018-07-24T04:26:15.186Z,16.77
2018-07-24T04:28:44.433Z,14.10
2018-07-24T04:31:13.479Z,13.43
2018-07-24T04:33:42.413Z,12.80
2018-07-24T04:36:10.843Z,14.10
2018-07-24T04:38:39.329Z,13.17
2018-07-24T04:41:07.598Z,14.47
2018-07-24T04:43:35.882Z,13.77
2018-07-24T04:46:03.975Z,12.70
2018-07-24T04:48:32.583Z,14.00
2018-07-24T04:51:00.897Z,13.83
2018-07-24T04:53:29.294Z,13.47
2018-07-24T04:55:57.765Z,14.60
2018-07-24T04:58:26.155Z,13.57
2018-07-24T05:00:54.722Z,13.00
2018-07-24T05:03:23.043Z,13.60
2018-07-24T05:05:51.493Z,13.33
2018-07-24T05:08:19.965Z,15.47
2018-07-24T05:10:48.438Z,13.60
2018-07-24T05:13:16.824Z,13.03
2018-07-24T05:15:45.196Z,13.03
2018-07-24T05:18:13.699Z,13.97
2018-07-24T05:20:41.858Z,14.23
2018-07-24T05:23:10.438Z,13.80
2018-07-24T05:25:38.408Z,13.83
2018-07-24T05:28:06.754Z,14.03
2018-07-24T05:30:35.058Z,13.37
2018-07-24T05:33:03.556Z,13.27
2018-07-24T05:35:32.019Z,13.23
2018-07-24T05:38:00.293Z,14.10
2018-07-24T05:40:28.662Z,13.83
2018-07-24T05:42:57.281Z,14.07
2018-07-24T05:45:25.634Z,12.70
2018-07-24T05:47:53.965Z,13.43
2018-07-24T05:50:22.480Z,13.70
2018-07-24T05:52:50.965Z,13.77
2018-07-24T05:55:19.241Z,12.47
2018-07-24T05:57:47.612Z,12.83
2018-07-24T06:00:15.989Z,13.47
2018-07-24T06:02:44.887Z,14.33
2018-07-24T06:05:13.374Z,12.93
2018-07-24T06:07:41.837Z,12.97
2018-07-24T06:10:10.227Z,12.97
2018-07-24T06:12:38.692Z,12.90
2018-07-24T06:15:08.084Z,12.47
2018-07-24T06:17:36.386Z,12.30
2018-07-24T06:20:05.834Z,13.13
2018-07-24T06:22:34.158Z,11.70
2018-07-24T06:25:02.442Z,12.60
2018-07-24T06:27:30.486Z,13.20
2018-07-24T06:29:58.783Z,12.33
2018-07-24T06:32:27.166Z,12.30
2018-07-24T06:34:55.699Z,13.10
2018-07-24T06:37:24.023Z,12.17
2018-07-24T06:39:52.289Z,12.70
2018-07-24T06:42:20.662Z,13.23
2018-07-24T06:44:48.941Z,11.83
2018-07-24T06:47:17.532Z,13.20
2018-07-24T06:49:45.811Z,12.10
2018-07-24T06:52:14.221Z,12.40
2018-07-24T06:54:42.863Z,11.43
2018-07-24T06:57:11.397Z,12.17
2018-07-24T06:59:39.847Z,11.90
2018-07-24T07:02:08.578Z,11.70
2018-07-24T07:04:37.209Z,11.97
2018-07-24T07:07:05.654Z,13.13
2018-07-24T07:09:34.174Z,11.93
2018-07-24T07:12:02.659Z,12.43
2018-07-24T07:14:31.233Z,12.57
2018-07-24T07:16:59.602Z,12.53
2018-07-24T07:19:27.785Z,13.37
2018-07-24T07:21:56.361Z,13.30
2018-07-24T07:24:24.540Z,12.60
2018-07-24T07:26:53.015Z,12.40
2018-07-24T07:29:21.269Z,12.27
2018-07-24T07:31:49.749Z,12.53
2018-07-24T07:34:17.943Z,13.10
2018-07-24T07:36:46.405Z,13.50
2018-07-24T07:39:14.463Z,12.77
2018-07-24T07:41:42.774Z,12.20
2018-07-24T07:44:11.070Z,12.60
2018-07-24T07:46:39.418Z,12.43
2018-07-24T07:49:07.693Z,12.90
2018-07-24T07:51:35.913Z,12.03
2018-07-24T07:54:04.352Z,12.20
2018-07-24T07:56:32.616Z,11.90
2018-07-24T07:59:00.902Z,12.27
2018-07-24T08:01:29.369Z,11.77
2018-07-24T08:03:57.761Z,11.40
2018-07-24T08:06:25.673Z,11.97
2018-07-24T08:08:53.986Z,11.83
2018-07-24T08:11:22.279Z,10.33
2018-07-24T08:13:50.649Z,10.80
2018-07-24T08:16:19.133Z,10.33
2018-07-24T08:18:47.206Z,9.27
2018-07-24T08:21:15.816Z,9.27
2018-07-24T08:23:44.177Z,9.30
2018-07-24T08:26:19.232Z,9.43
2018-07-24T08:28:48.238Z,9.60
2018-07-24T08:31:16.992Z,9.30
2018-07-24T08:33:45.156Z,9.60
2018-07-24T08:36:13.788Z,9.33
2018-07-24T08:38:42.026Z,9.60
2018-07-24T08:41:10.913Z,9.00
2018-07-24T08:43:39.325Z,9.70
2018-07-24T08:46:07.430Z,10.17
2018-07-24T08:48:35.506Z,9.23
2018-07-24T08:51:03.597Z,9.53
2018-07-24T08:53:32.208Z,9.13
2018-07-24T08:56:00.075Z,9.07
2018-07-24T08:58:28.454Z,9.47
2018-07-24T09:00:56.799Z,9.43
2018-07-24T09:03:25.089Z,9.20
2018-07-24T09:05:53.457Z,10.33
2018-07-24T09:08:21.708Z,8.83
2018-07-24T09:10:50.206Z,8.77
2018-07-24T09:13:18.589Z,10.20
2018-07-24T09:15:46.965Z,8.70
2018-07-24T09:18:15.311Z,8.90
2018-07-24T09:20:43.597Z,8.43
2018-07-24T09:23:11.881Z,7.87
2018-07-24T09:25:40.158Z,7.70
2018-07-24T09:28:08.539Z,8.97
2018-07-24T09:30:36.826Z,8.27
2018-07-24T09:33:05.290Z,7.70
2018-07-24T09:35:33.224Z,7.33
2018-07-24T09:38:01.430Z,8.23
2018-07-24T09:40:29.776Z,8.37
2018-07-24T09:42:57.682Z,6.93
2018-07-24T09:45:26.011Z,7.80
2018-07-24T09:47:54.459Z,8.97
2018-07-24T09:50:22.918Z,9.83
2018-07-24T09:52:51.189Z,8.97
2018-07-24T09:55:19.573Z,8.20
2018-07-24T09:57:47.833Z,8.10
2018-07-24T10:00:16.426Z,8.90
2018-07-24T10:02:44.917Z,9.10
2018-07-24T10:05:13.204Z,8.50
2018-07-24T10:07:42.390Z,8.00
2018-07-24T10:10:10.765Z,7.97
2018-07-24T10:12:38.949Z,8.37
2018-07-24T10:15:07.201Z,8.87
2018-07-24T10:17:35.477Z,8.60
2018-07-24T10:20:03.985Z,8.47
2018-07-24T10:22:32.129Z,7.77
2018-07-24T10:25:00.405Z,7.60
2018-07-24T10:27:28.682Z,8.33
2018-07-24T10:29:56.632Z,9.40
2018-07-24T10:32:24.933Z,8.73
2018-07-24T10:34:52.858Z,8.50
2018-07-24T10:37:20.782Z,7.70
2018-07-24T10:39:49.021Z,8.30
2018-07-24T10:42:17.414Z,8.70
2018-07-24T10:44:45.690Z,7.83
2018-07-24T10:47:13.970Z,9.10
2018-07-24T10:49:42.350Z,8.20
2018-07-24T10:52:10.621Z,9.13
2018-07-24T10:54:38.992Z,7.87
2018-07-24T10:57:06.657Z,9.00
2018-07-24T10:59:34.929Z,8.63
2018-07-24T11:02:03.318Z,7.97
2018-07-24T11:04:31.693Z,8.50
2018-07-24T11:06:59.961Z,8.73
2018-07-24T11:09:28.246Z,8.17
2018-07-24T11:11:56.620Z,8.00
2018-07-24T11:14:24.901Z,7.70
2018-07-24T11:16:53.161Z,7.63
2018-07-24T11:19:21.348Z,7.43
2018-07-24T11:21:49.631Z,7.93
2018-07-24T11:24:17.885Z,8.60
2018-07-24T11:26:46.376Z,8.30
2018-07-24T11:29:14.740Z,8.43
2018-07-24T11:31:43.263Z,8.10
2018-07-24T11:34:11.604Z,7.80
2018-07-24T11:36:39.882Z,7.03
2018-07-24T11:39:09.954Z,6.87
2018-07-24T11:41:38.386Z,7.20
2018-07-24T11:44:07.046Z,7.30
2018-07-24T11:46:35.589Z,6.33
2018-07-24T11:49:03.932Z,6.00
2018-07-24T11:51:32.484Z,7.10
2018-07-24T11:54:00.785Z,6.90
2018-07-24T11:56:29.158Z,6.97
2018-07-24T11:58:57.551Z,6.70
2018-07-24T12:01:26.008Z,6.80
2018-07-24T12:03:54.300Z,6.30
2018-07-24T12:06:22.669Z,7.23
2018-07-24T12:08:50.602Z,6.67
2018-07-24T12:11:19.013Z,6.90
2018-07-24T12:13:47.193Z,7.73
2018-07-24T12:16:15.466Z,7.00
2018-07-24T12:18:43.838Z,7.23
2018-07-24T12:21:12.122Z,6.87
2018-07-24T12:23:40.441Z,7.40
2018-07-24T12:26:08.769Z,7.20
2018-07-24T12:28:37.153Z,7.33
2018-07-24T12:31:05.545Z,7.00
2018-07-24T12:33:33.917Z,7.77
2018-07-24T12:36:02.221Z,8.00
2018-07-24T12:38:30.668Z,7.10
2018-07-24T12:40:59.126Z,7.00
2018-07-24T12:43:27.437Z,6.90
2018-07-24T12:45:55.813Z,7.60
2018-07-24T12:48:24.190Z,7.20
2018-07-24T12:50:52.558Z,7.03
2018-07-24T12:53:21.034Z,7.23
2018-07-24T12:55:49.512Z,8.00
2018-07-24T12:58:17.788Z,7.40
2018-07-24T13:00:46.181Z,7.33
2018-07-24T13:03:14.106Z,6.77
2018-07-24T13:05:42.420Z,6.93
2018-07-24T13:08:10.689Z,7.07
2018-07-24T13:10:38.653Z,7.40
2018-07-24T13:13:07.064Z,7.53
2018-07-24T13:15:35.543Z,6.57
2018-07-24T13:18:04.179Z,6.90
2018-07-24T13:20:32.742Z,7.57
2018-07-24T13:23:01.039Z,8.30
2018-07-24T13:25:29.593Z,6.50
2018-07-24T13:27:57.924Z,7.33
2018-07-24T13:30:26.306Z,7.20
2018-07-24T13:32:54.669Z,6.47
2018-07-24T13:35:23.051Z,6.87
2018-07-24T13:37:51.327Z,7.20
2018-07-24T13:40:19.974Z,7.27
2018-07-24T13:42:48.380Z,7.30
2018-07-24T13:45:16.757Z,7.80
2018-07-24T13:47:45.141Z,8.00
2018-07-24T13:50:13.366Z,7.73
2018-07-24T13:52:42.327Z,6.90
2018-07-24T13:55:10.678Z,7.93
2018-07-24T13:57:39.014Z,7.70
2018-07-24T14:00:07.610Z,7.90
2018-07-24T14:02:36.129Z,8.03
2018-07-24T14:05:04.308Z,8.07
2018-07-24T14:07:32.679Z,7.90
2018-07-24T14:10:01.033Z,7.70
2018-07-24T14:12:29.454Z,8.53
2018-07-24T14:14:57.817Z,7.23
2018-07-24T14:17:26.297Z,8.10
2018-07-24T14:19:54.670Z,7.57
2018-07-24T14:22:22.947Z,7.77
2018-07-24T14:24:51.257Z,7.30
2018-07-24T14:27:19.606Z,7.23
2018-07-24T14:29:47.599Z,7.70
2018-07-24T14:32:15.902Z,7.37
2018-07-24T14:34:44.205Z,7.17
2018-07-24T14:37:12.479Z,6.53
2018-07-24T14:39:40.874Z,7.50
2018-07-24T14:42:09.243Z,7.10
2018-07-24T14:44:37.517Z,7.70
2018-07-24T14:47:05.900Z,8.17
2018-07-24T14:49:34.181Z,8.33
2018-07-24T14:52:02.558Z,9.20
2018-07-24T14:54:30.681Z,7.70
2018-07-24T14:56:59.113Z,7.90
2018-07-24T14:59:27.537Z,8.23
2018-07-24T15:01:55.753Z,7.80
2018-07-24T15:04:24.032Z,8.13
2018-07-24T15:06:52.305Z,8.33
2018-07-24T15:09:20.668Z,7.60
2018-07-24T15:11:49.060Z,7.33
2018-07-24T15:14:17.329Z,8.37
2018-07-24T15:16:45.609Z,7.30
2018-07-24T15:19:13.881Z,8.07
2018-07-24T15:21:42.062Z,7.33
2018-07-24T15:24:10.447Z,7.63
2018-07-24T15:26:38.726Z,8.43
2018-07-24T15:29:06.622Z,8.43
2018-07-24T15:31:34.569Z,8.30
2018-07-24T15:34:02.590Z,8.47
2018-07-24T15:36:30.545Z,8.73
2018-07-24T15:38:58.858Z,8.63
2018-07-24T15:41:26.813Z,8.53
2018-07-24T15:43:55.114Z,8.93
2018-07-24T15:46:23.593Z,8.77
2018-07-24T15:48:51.982Z,9.40
2018-07-24T15:51:20.236Z,9.67
2018-07-24T15:53:48.105Z,9.23
2018-07-24T15:56:16.047Z,8.13
2018-07-24T15:58:44.046Z,9.30
2018-07-24T16:01:12.426Z,8.60
2018-07-24T16:03:40.912Z,8.40
2018-07-24T16:06:09.344Z,8.47
2018-07-24T16:08:37.450Z,9.13
2018-07-24T16:11:05.940Z,9.10
2018-07-24T16:13:34.114Z,9.20
2018-07-24T16:16:02.709Z,9.73
2018-07-24T16:18:31.074Z,9.53
2018-07-24T16:20:59.541Z,9.40
2018-07-24T16:23:27.825Z,9.40
2018-07-24T16:25:56.093Z,9.73
2018-07-24T16:28:24.474Z,9.20
2018-07-24T16:30:52.749Z,9.67
2018-07-24T16:33:20.923Z,9.57
2018-07-24T16:35:49.409Z,9.57
2018-07-24T16:38:17.681Z,8.93
2018-07-24T16:40:46.217Z,10.33
2018-07-24T16:43:14.637Z,10.10
2018-07-24T16:45:42.809Z,9.57
2018-07-24T16:48:11.102Z,9.53
2018-07-24T16:50:39.256Z,9.63
2018-07-24T16:53:07.645Z,9.63
2018-07-24T16:55:35.914Z,10.07
2018-07-24T16:58:03.853Z,10.37
2018-07-24T17:00:32.329Z,9.77
2018-07-24T17:03:00.783Z,10.30
2018-07-24T17:05:28.925Z,10.10
2018-07-24T17:07:57.300Z,9.30
2018-07-24T17:10:25.666Z,9.40
2018-07-24T17:12:53.856Z,7.67
2018-07-24T17:15:22.317Z,7.47
2018-07-24T17:17:50.501Z,7.40
2018-07-24T17:20:18.765Z,7.77
2018-07-24T17:22:46.946Z,7.43
2018-07-24T17:25:15.329Z,6.80
2018-07-24T17:27:43.664Z,9.17
2018-07-24T17:30:12.077Z,6.90
2018-07-24T17:32:40.248Z,7.60
2018-07-24T17:35:08.520Z,9.93
2018-07-24T17:40:45.635Z,8.03
2018-07-24T17:43:14.218Z,8.77
2018-07-24T17:45:42.653Z,8.00
2018-07-24T17:48:10.584Z,7.37
2018-07-24T17:50:39.208Z,8.10
2018-07-24T17:53:07.531Z,8.00
2018-07-24T17:55:35.563Z,8.37
2018-07-24T17:58:04.083Z,9.03
2018-07-24T18:00:32.479Z,9.10
2018-07-24T18:03:00.831Z,12.93
2018-07-24T18:05:29.198Z,9.67
2018-07-24T18:07:57.486Z,7.87
2018-07-24T18:10:25.762Z,7.90
2018-07-24T18:12:54.617Z,7.43
2018-07-24T18:15:22.946Z,6.70
2018-07-24T18:17:51.206Z,7.83
2018-07-24T18:20:19.474Z,7.53
2018-07-24T18:22:47.852Z,7.60
2018-07-24T18:25:16.225Z,6.53
2018-07-24T18:27:44.520Z,7.43
2018-07-24T18:30:12.985Z,7.57
2018-07-24T18:32:41.274Z,7.37
2018-07-24T18:35:09.279Z,7.33
2018-07-24T18:37:37.498Z,7.50
2018-07-24T18:40:05.874Z,7.27
2018-07-24T18:42:34.061Z,8.00
2018-07-24T18:45:02.450Z,7.83
2018-07-24T18:47:30.701Z,8.30
2018-07-24T18:49:59.028Z,8.53
2018-07-24T18:52:27.365Z,7.70
2018-07-24T18:54:55.629Z,8.00
2018-07-24T18:57:23.900Z,7.83
2018-07-24T18:59:52.195Z,7.73
2018-07-24T19:02:20.467Z,8.83
2018-07-24T19:04:48.841Z,7.97
2018-07-24T19:07:17.119Z,8.40
2018-07-24T19:09:45.481Z,7.90
2018-07-24T19:12:13.769Z,7.23
2018-07-24T19:14:42.037Z,8.27
2018-07-24T19:17:10.471Z,8.03
2018-07-24T19:19:38.797Z,7.30
2018-07-24T19:22:07.079Z,6.57
2018-07-24T19:24:35.237Z,7.60
2018-07-24T19:27:03.629Z,7.50
2018-07-24T19:29:31.579Z,7.20
2018-07-24T19:32:00.114Z,7.53
2018-07-24T19:34:28.363Z,7.37
2018-07-24T19:36:56.845Z,8.40
2018-07-24T19:39:25.177Z,8.43
2018-07-24T19:41:53.485Z,8.30
2018-07-24T19:44:21.862Z,9.00
2018-07-24T19:46:50.138Z,8.23
2018-07-24T19:49:18.417Z,8.10
2018-07-24T19:51:46.677Z,8.40
2018-07-24T19:54:14.958Z,8.33
2018-07-24T19:56:43.130Z,8.03
2018-07-24T19:59:11.506Z,8.77
2018-07-24T20:01:39.780Z,10.00
2018-07-24T20:04:08.057Z,8.83
2018-07-24T20:06:36.333Z,8.63
2018-07-24T20:09:07.593Z,8.50
2018-07-24T20:11:35.962Z,8.33
2018-07-24T20:14:04.333Z,8.53
2018-07-24T20:16:32.711Z,9.40
2018-07-24T20:19:01.090Z,8.93
2018-07-24T20:21:29.253Z,9.10
2018-07-24T20:23:57.548Z,9.53
2018-07-24T20:26:25.793Z,9.30
2018-07-24T20:28:54.186Z,8.73
2018-07-24T20:31:22.474Z,9.30
2018-07-24T20:33:51.049Z,9.47
2018-07-24T20:36:19.438Z,9.53
2018-07-24T20:38:47.518Z,9.13
2018-07-24T20:41:16.094Z,9.40
2018-07-24T20:43:44.669Z,9.23
2018-07-24T20:46:12.688Z,9.00
2018-07-24T20:48:41.034Z,8.80
2018-07-24T20:51:09.420Z,8.93
2018-07-24T20:53:37.877Z,8.87
2018-07-24T20:56:06.301Z,9.33
2018-07-24T20:58:34.724Z,9.43
2018-07-24T21:01:03.010Z,10.60
2018-07-24T21:03:31.417Z,10.50
2018-07-24T21:05:59.770Z,11.03
2018-07-24T21:08:28.421Z,11.30
2018-07-24T21:10:56.725Z,11.00
2018-07-24T21:13:24.985Z,11.50
2018-07-24T21:15:53.268Z,10.87
2018-07-24T21:18:21.653Z,11.27
2018-07-24T21:20:49.947Z,10.67
2018-07-24T21:23:18.513Z,10.33
2018-07-24T21:25:46.985Z,11.07
2018-07-24T21:28:15.270Z,10.37
2018-07-24T21:30:43.540Z,10.83
2018-07-24T21:33:11.813Z,10.37
2018-07-24T21:35:40.085Z,10.23
2018-07-24T21:38:08.356Z,10.37
2018-07-24T21:40:36.645Z,11.07
2018-07-24T21:43:05.035Z,11.27
2018-07-24T21:45:33.293Z,11.00
2018-07-24T21:48:01.566Z,11.17
2018-07-24T21:50:29.841Z,10.20
2018-07-24T21:52:58.005Z,10.73
2018-07-24T21:55:26.289Z,10.87
2018-07-24T21:57:54.660Z,10.10
2018-07-24T22:00:23.064Z,10.77
2018-07-24T22:02:51.226Z,11.10
2018-07-24T22:05:19.607Z,10.83
2018-07-24T22:07:47.890Z,10.53
2018-07-24T22:10:21.406Z,10.03
2018-07-24T22:12:49.751Z,10.83
2018-07-24T22:15:27.081Z,10.70
2018-07-24T22:17:55.865Z,10.53
2018-07-24T22:20:24.353Z,10.90
2018-07-24T22:22:52.892Z,10.50
2018-07-24T22:25:21.065Z,10.40
2018-07-24T22:27:49.345Z,10.03
2018-07-24T22:30:17.533Z,10.83
2018-07-24T22:32:45.881Z,10.33
2018-07-24T22:35:14.153Z,10.67
2018-07-24T22:37:42.545Z,9.90
2018-07-24T22:40:11.329Z,11.37
2018-07-24T22:42:39.815Z,9.93
2018-07-24T22:45:08.229Z,10.67
2018-07-24T22:47:36.254Z,10.40
2018-07-24T22:50:04.914Z,10.97
2018-07-24T22:52:33.213Z,10.73
2018-07-24T22:55:01.506Z,10.63
2018-07-24T22:57:29.867Z,10.57
2018-07-24T22:59:58.149Z,10.40
2018-07-24T23:02:26.525Z,10.83
2018-07-24T23:04:54.898Z,10.43
2018-07-24T23:07:23.078Z,10.40
2018-07-24T23:09:51.345Z,10.10
2018-07-24T23:12:19.620Z,10.47
2018-07-24T23:14:47.893Z,10.57
2018-07-24T23:17:16.230Z,10.60
2018-07-24T23:19:44.459Z,10.67
2018-07-24T23:22:12.836Z,10.53
2018-07-24T23:24:41.102Z,10.93
2018-07-24T23:27:09.473Z,10.20
2018-07-24T23:29:37.857Z,10.73
2018-07-24T23:32:06.128Z,10.87
2018-07-24T23:34:34.202Z,11.03
2018-07-24T23:37:02.373Z,10.57
2018-07-24T23:39:30.753Z,10.87
2018-07-24T23:41:59.145Z,11.40
2018-07-24T23:44:27.514Z,11.33
2018-07-24T23:46:55.838Z,11.63
2018-07-24T23:49:24.070Z,12.23
2018-07-24T23:51:52.542Z,11.30
2018-07-24T23:54:20.800Z,11.00
2018-07-24T23:56:49.103Z,11.93
2018-07-24T23:59:17.277Z,11.17
